»·PEaware :: ASA1078 KPDX-KLAX

ASA1078 :: KPDX-KLAX

FLIGHT INFORMATION

Flight Status: Arrived
Operator:
Alaska Airlines
More flights by this operator :: More flights under this callsign
Pilot: Sean T. (30125)
Aircraft: AIRBUS A319
(A319)
More flights by this aircraft type
Origin: KPDX Portland Intl
United States
Destination: KLAX Los Angeles Intl
United States
More flights between these airports :: More routes between these airports
Route: +CASCD2 SMIGE Q9 REBRG IRNMN2
File this flight plan on PilotEdge
Remarks:
Altitude:
(Current/Filed)
35,000ft
Speed:
(Current/Filed)
290kts
Departed: 16-Aug-20 04:26 PM
Arrived: 16-Aug-20 06:25 PM
Distance/Time
Traveled:
724nm/1:59
Distance/Time
To Go:
Arrived

Flight Plot

Page will automatically refresh every two minutes.

Flight plan parsing failed; only flown route is shown


Map Options




Map Legend


Flown Route
Filed Route
Departure Airport
Arrival Airport
Navaid (VOR, NDB)
Fix

Horizontal Profiles

Position Reports

Time Latitude Longitude Heading Altitude Ground
Speed
16-Aug-20 16:02 45.587797 -122.594830 11 25ft 0kts
16-Aug-20 16:03 45.587797 -122.594830 11 25ft 0kts
16-Aug-20 16:04 45.587797 -122.594830 11 25ft 0kts
16-Aug-20 16:05 45.587797 -122.594830 11 25ft 0kts
16-Aug-20 16:06 45.587797 -122.594830 11 25ft 0kts
16-Aug-20 16:07 45.587797 -122.594830 11 25ft 0kts
16-Aug-20 16:08 45.587797 -122.594830 11 25ft 0kts
16-Aug-20 16:09 45.587797 -122.594830 11 25ft 0kts
16-Aug-20 16:10 45.587797 -122.594830 11 25ft 0kts
16-Aug-20 16:11 45.587797 -122.594830 11 25ft 0kts
16-Aug-20 16:12 45.587797 -122.594830 11 25ft 0kts
16-Aug-20 16:13 45.587797 -122.594830 11 25ft 0kts
16-Aug-20 16:14 45.587797 -122.594830 11 25ft 0kts
16-Aug-20 16:15 45.587797 -122.594830 11 25ft 0kts
16-Aug-20 16:16 45.587784 -122.594834 11 25ft 1kts
16-Aug-20 16:17 45.587254 -122.594929 334 25ft 1kts
16-Aug-20 16:18 45.586840 -122.594451 289 25ft 1kts
16-Aug-20 16:19 45.586865 -122.594567 289 25ft 0kts
16-Aug-20 16:20 45.587226 -122.595822 297 25ft 11kts
16-Aug-20 16:21 45.589357 -122.601261 298 24ft 17kts
16-Aug-20 16:22 45.592961 -122.599621 44 28ft 20kts
16-Aug-20 16:23 45.595496 -122.600776 28 28ft 0kts
16-Aug-20 16:24 45.596317 -122.599683 85 28ft 16kts
16-Aug-20 16:26 45.581560 -122.561002 114 912ft 174kts
16-Aug-20 16:27 45.570261 -122.490233 94 3865ft 200kts
16-Aug-20 16:28 45.557599 -122.412186 103 6990ft 214kts
16-Aug-20 16:29 45.537396 -122.325267 128 9857ft 244kts
16-Aug-20 16:30 45.480177 -122.276203 158 13180ft 240kts
16-Aug-20 16:31 45.417725 -122.256927 173 16282ft 223kts
16-Aug-20 16:32 45.351967 -122.237447 170 17811ft 266kts
16-Aug-20 16:33 45.272339 -122.214039 170 19114ft 317kts
16-Aug-20 16:34 45.181381 -122.187541 171 21095ft 341kts
16-Aug-20 16:35 45.087571 -122.160109 169 23478ft 345kts
16-Aug-20 16:36 44.999072 -122.110181 158 26057ft 338kts
16-Aug-20 16:37 44.917036 -122.054646 159 28628ft 314kts
16-Aug-20 16:38 44.842569 -122.004479 161 31189ft 276kts
16-Aug-20 16:39 44.769204 -121.955556 160 31816ft 312kts
16-Aug-20 16:40 44.686258 -121.900083 160 32629ft 348kts
16-Aug-20 16:41 44.594942 -121.839100 159 33587ft 376kts
16-Aug-20 16:41 44.514761 -121.785711 159 34507ft 393kts
16-Aug-20 16:43 44.395838 -121.706927 159 35109ft 427kts
16-Aug-20 16:44 44.290219 -121.637045 159 35151ft 421kts
16-Aug-20 16:44 44.201977 -121.578960 159 35168ft 420kts
16-Aug-20 16:46 44.079077 -121.498313 159 35183ft 421kts
16-Aug-20 16:47 43.973553 -121.429350 159 35188ft 420kts
16-Aug-20 16:47 43.886489 -121.374766 163 35192ft 418kts
16-Aug-20 16:48 43.775379 -121.331424 173 35191ft 412kts
16-Aug-20 16:49 43.662634 -121.306098 174 35190ft 411kts
16-Aug-20 16:50 43.549818 -121.281116 174 35190ft 411kts
16-Aug-20 16:51 43.436287 -121.256180 174 35189ft 411kts
16-Aug-20 16:52 43.323463 -121.231463 174 35191ft 412kts
16-Aug-20 16:53 43.210028 -121.206716 174 35190ft 411kts
16-Aug-20 16:54 43.096997 -121.182174 174 35201ft 412kts
16-Aug-20 16:55 42.982932 -121.157512 174 35240ft 413kts
16-Aug-20 16:56 42.870118 -121.133219 173 35261ft 412kts
16-Aug-20 16:57 42.756370 -121.108796 173 35272ft 415kts
16-Aug-20 16:58 42.642280 -121.084379 173 35282ft 417kts
16-Aug-20 16:59 42.528388 -121.060201 171 35278ft 413kts
16-Aug-20 17:00 42.414272 -121.035860 171 35280ft 414kts
16-Aug-20 17:01 42.299772 -121.011599 171 35288ft 416kts
16-Aug-20 17:02 42.185114 -120.987417 171 35300ft 418kts
16-Aug-20 17:03 42.069843 -120.963180 170 35310ft 420kts
16-Aug-20 17:04 41.954200 -120.938930 170 35304ft 420kts
16-Aug-20 17:05 41.838575 -120.914852 170 35286ft 420kts
16-Aug-20 17:06 41.722784 -120.890821 170 35278ft 420kts
16-Aug-20 17:07 41.606812 -120.866799 170 35274ft 420kts
16-Aug-20 17:08 41.491225 -120.842938 170 35273ft 420kts
16-Aug-20 17:09 41.375271 -120.819076 170 35274ft 420kts
16-Aug-20 17:10 41.259224 -120.795282 170 35273ft 420kts
16-Aug-20 17:11 41.143747 -120.771649 170 35274ft 420kts
16-Aug-20 17:12 41.027158 -120.747733 172 35271ft 428kts
16-Aug-20 17:13 40.907385 -120.720132 171 35273ft 442kts
16-Aug-20 17:14 40.788739 -120.691434 171 35256ft 441kts
16-Aug-20 17:15 40.667710 -120.662294 171 35241ft 441kts
16-Aug-20 17:16 40.546845 -120.633317 171 35237ft 442kts
16-Aug-20 17:17 40.425689 -120.604371 171 35238ft 441kts
16-Aug-20 17:18 40.304844 -120.575577 171 35237ft 441kts
16-Aug-20 17:19 40.183480 -120.546796 171 35238ft 441kts
16-Aug-20 17:20 40.062563 -120.518216 171 35236ft 441kts
16-Aug-20 17:21 39.941333 -120.489656 171 35236ft 442kts
16-Aug-20 17:22 39.821213 -120.461509 171 35238ft 441kts
16-Aug-20 17:23 39.700059 -120.433243 171 35271ft 441kts
16-Aug-20 17:24 39.578871 -120.405017 171 35315ft 441kts
16-Aug-20 17:25 39.457948 -120.376941 171 35334ft 441kts
16-Aug-20 17:26 39.336985 -120.348938 171 35340ft 441kts
16-Aug-20 17:27 39.216032 -120.320589 171 35344ft 441kts
16-Aug-20 17:28 39.095167 -120.292726 172 35343ft 441kts
16-Aug-20 17:29 38.974116 -120.264992 171 35344ft 438kts
16-Aug-20 17:30 38.855373 -120.237937 171 35341ft 430kts
16-Aug-20 17:31 38.737311 -120.211127 171 35345ft 431kts
16-Aug-20 17:32 38.619762 -120.184481 171 35346ft 430kts
16-Aug-20 17:33 38.501332 -120.157711 171 35333ft 430kts
16-Aug-20 17:34 38.383311 -120.131105 171 35220ft 431kts
16-Aug-20 17:35 38.265242 -120.104540 171 35170ft 431kts
16-Aug-20 17:36 38.146847 -120.078446 172 35157ft 431kts
16-Aug-20 17:37 38.028350 -120.052516 172 35035ft 431kts
16-Aug-20 17:38 37.910153 -120.026656 172 34981ft 432kts
16-Aug-20 17:39 37.791738 -120.000893 172 34946ft 432kts
16-Aug-20 17:40 37.673211 -119.975136 171 34895ft 433kts
16-Aug-20 17:41 37.554545 -119.949408 172 34876ft 433kts
16-Aug-20 17:42 37.435695 -119.923734 171 34875ft 432kts
16-Aug-20 17:43 37.316640 -119.898093 171 34876ft 433kts
16-Aug-20 17:44 37.197832 -119.872585 171 34877ft 433kts
16-Aug-20 17:45 37.079588 -119.847273 172 34877ft 433kts
16-Aug-20 17:46 36.960814 -119.821917 172 34876ft 434kts
16-Aug-20 17:47 36.842227 -119.796741 172 34877ft 434kts
16-Aug-20 17:48 36.723304 -119.771575 172 34876ft 434kts
16-Aug-20 17:49 36.604163 -119.746380 172 34876ft 434kts
16-Aug-20 17:50 36.485825 -119.721437 172 34877ft 434kts
16-Aug-20 17:51 36.366297 -119.696286 172 34876ft 434kts
16-Aug-20 17:52 36.248421 -119.671558 172 34877ft 434kts
16-Aug-20 17:53 36.132933 -119.647280 172 34877ft 434kts
16-Aug-20 17:54 36.014310 -119.629907 181 34875ft 432kts
16-Aug-20 17:55 35.896732 -119.648550 195 34876ft 430kts
16-Aug-20 17:56 35.781982 -119.690755 196 34875ft 430kts
16-Aug-20 17:57 35.667520 -119.732566 194 34871ft 430kts
16-Aug-20 17:58 35.550346 -119.762143 191 34870ft 430kts
16-Aug-20 17:59 35.433352 -119.790357 191 34866ft 430kts
16-Aug-20 18:00 35.314502 -119.802209 173 34873ft 434kts
16-Aug-20 18:01 35.202717 -119.745299 147 34900ft 444kts
16-Aug-20 18:02 35.104660 -119.653600 145 34020ft 438kts
16-Aug-20 18:03 35.008023 -119.563561 145 31742ft 435kts
16-Aug-20 18:04 34.923252 -119.484873 144 29262ft 420kts
16-Aug-20 18:05 34.830562 -119.401846 144 26743ft 398kts
16-Aug-20 18:06 34.743490 -119.323955 144 25031ft 383kts
16-Aug-20 18:07 34.657651 -119.248795 144 23469ft 375kts
16-Aug-20 18:08 34.574061 -119.176632 144 21557ft 365kts
16-Aug-20 18:09 34.493169 -119.105290 143 19588ft 356kts
16-Aug-20 18:10 34.414043 -119.035694 143 17616ft 348kts
16-Aug-20 18:11 34.335888 -118.967972 142 15984ft 341kts
16-Aug-20 18:12 34.259557 -118.898570 142 15972ft 344kts
16-Aug-20 18:13 34.184389 -118.829582 141 15752ft 313kts
16-Aug-20 18:14 34.120291 -118.763242 136 12813ft 300kts
16-Aug-20 18:15 34.060183 -118.697774 137 10073ft 287kts
16-Aug-20 18:16 34.024683 -118.619845 97 8992ft 271kts
16-Aug-20 18:17 34.016667 -118.529669 97 8181ft 268kts
16-Aug-20 18:18 34.012076 -118.444091 82 6982ft 222kts
16-Aug-20 18:19 34.024643 -118.371989 80 6474ft 230kts
16-Aug-20 18:20 33.994489 -118.313109 137 4405ft 232kts
16-Aug-20 18:21 33.944269 -118.300427 245 2110ft 218kts
16-Aug-20 18:22 33.958117 -118.357850 257 985ft 161kts
16-Aug-20 18:24 33.951197 -118.410604 262 125ft 129kts
16-Aug-20 18:25 33.948590 -118.426678 227 114ft 2kts
16-Aug-20 18:26 33.947605 -118.427580 203 111ft 17kts
16-Aug-20 18:27 33.946767 -118.423100 83 117ft 17kts
16-Aug-20 18:28 33.947487 -118.416143 83 120ft 29kts
16-Aug-20 18:29 33.947622 -118.408037 84 123ft 20kts
16-Aug-20 18:30 33.946972 -118.407131 174 121ft 0kts
16-Aug-20 18:31 33.946972 -118.407131 174 121ft 0kts
16-Aug-20 18:32 33.946972 -118.407131 174 121ft 0kts

Navigation Log

Ident Type
Flight plan parsing failed, navigation log unavailable